createdAt,value
2023-01-29T00:01:12.536Z,74.95
2023-01-29T00:03:40.869Z,166.07
2023-01-29T00:06:10.153Z,111.82
2023-01-29T00:08:39.949Z,119.75
2023-01-29T00:11:09.459Z,86.57
2023-01-29T00:13:37.850Z,73.35
2023-01-29T00:16:06.149Z,59.88
2023-01-29T00:18:34.421Z,60.88
2023-01-29T00:21:02.791Z,49.05
2023-01-29T00:23:31.198Z,47.22
2023-01-29T00:26:00.984Z,50.63
2023-01-29T00:28:29.322Z,56.15
2023-01-29T00:30:57.728Z,67.38
2023-01-29T00:33:26.359Z,59.78
2023-01-29T00:35:54.582Z,67.28
2023-01-29T00:38:22.795Z,80.05
2023-01-29T00:40:51.330Z,85.38
2023-01-29T00:43:19.712Z,80.80
2023-01-29T00:45:48.038Z,76.30
2023-01-29T00:48:16.323Z,75.80
2023-01-29T00:50:44.774Z,73.35
2023-01-29T00:53:13.215Z,72.03
2023-01-29T00:55:41.352Z,68.32
2023-01-29T00:58:09.544Z,84.10
2023-01-29T01:00:38.006Z,116.30
2023-01-29T01:03:06.295Z,105.97
2023-01-29T01:05:35.007Z,113.13
2023-01-29T01:08:05.530Z,98.55
2023-01-29T01:10:34.314Z,90.93
2023-01-29T01:15:38.460Z,89.60
2023-01-29T01:18:07.204Z,75.80
2023-01-29T01:20:36.573Z,82.78
2023-01-29T01:23:05.142Z,81.32
2023-01-29T01:25:34.802Z,74.47
2023-01-29T01:28:03.039Z,70.63
2023-01-29T01:30:31.431Z,70.65
2023-01-29T01:33:00.017Z,75.82
2023-01-29T01:35:28.177Z,77.55
2023-01-29T01:37:56.521Z,100.70
2023-01-29T01:40:26.375Z,99.78
2023-01-29T01:42:57.426Z,111.13
2023-01-29T01:45:36.955Z,137.27
2023-01-29T01:48:13.557Z,141.40
2023-01-29T01:50:49.403Z,146.55
2023-01-29T01:53:31.416Z,150.07
2023-01-29T01:56:04.255Z,127.75
2023-01-29T01:58:36.800Z,124.25
2023-01-29T02:01:08.831Z,127.03
2023-01-29T02:03:48.409Z,116.22
2023-01-29T02:06:16.816Z,135.40
2023-01-29T02:09:02.767Z,123.10
2023-01-29T02:11:31.715Z,130.07
2023-01-29T02:14:00.486Z,137.55
2023-01-29T02:16:28.942Z,117.30
2023-01-29T02:18:57.698Z,120.43
2023-01-29T02:21:51.278Z,116.63
2023-01-29T02:24:29.491Z,95.97
2023-01-29T02:27:28.087Z,100.18
2023-01-29T02:30:24.729Z,94.82
2023-01-29T02:33:30.930Z,100.57
2023-01-29T02:36:28.276Z,86.43
2023-01-29T02:39:16.223Z,97.80
2023-01-29T02:42:16.234Z,104.25
2023-01-29T02:44:56.361Z,96.88
2023-01-29T02:47:44.319Z,98.20
2023-01-29T02:50:19.468Z,104.45
2023-01-29T02:53:08.569Z,102.32
2023-01-29T02:55:40.027Z,102.65
2023-01-29T02:58:23.281Z,94.93
2023-01-29T03:00:54.989Z,102.28
2023-01-29T03:03:39.330Z,113.57
2023-01-29T03:06:36.331Z,101.88
2023-01-29T03:09:34.196Z,123.30
2023-01-29T03:12:11.163Z,104.82
2023-01-29T03:14:42.221Z,137.48
2023-01-29T03:17:11.113Z,158.85
2023-01-29T03:19:47.453Z,125.00
2023-01-29T03:22:23.234Z,119.05
2023-01-29T03:24:57.927Z,109.63
2023-01-29T03:27:37.181Z,117.15
2023-01-29T03:30:08.682Z,114.60
2023-01-29T03:32:55.040Z,106.47
2023-01-29T03:35:29.125Z,109.47
2023-01-29T03:37:57.511Z,98.57
2023-01-29T03:40:26.125Z,101.07
2023-01-29T03:43:06.590Z,93.35
2023-01-29T03:46:01.018Z,101.35
2023-01-29T03:48:40.978Z,99.50
2023-01-29T03:51:35.810Z,97.28
2023-01-29T03:54:45.999Z,100.63
2023-01-29T03:57:32.343Z,91.70
2023-01-29T04:00:08.486Z,110.28
2023-01-29T04:03:21.169Z,80.72
2023-01-29T04:06:21.531Z,89.15
2023-01-29T04:09:11.315Z,78.60
2023-01-29T04:11:47.912Z,78.82
2023-01-29T04:14:17.429Z,75.88
2023-01-29T04:16:52.290Z,85.38
2023-01-29T04:19:44.500Z,71.13
2023-01-29T04:22:26.859Z,72.90
2023-01-29T04:24:56.099Z,71.55
2023-01-29T04:27:44.935Z,56.05
2023-01-29T04:30:29.883Z,58.17
2023-01-29T04:33:26.216Z,57.70
2023-01-29T04:36:01.627Z,46.33
2023-01-29T04:38:52.175Z,44.55
2023-01-29T04:41:20.432Z,42.97
2023-01-29T04:44:15.584Z,37.20
2023-01-29T04:47:19.092Z,38.53
2023-01-29T04:49:56.397Z,36.17
2023-01-29T04:52:43.052Z,39.40
2023-01-29T04:55:32.875Z,42.05
2023-01-29T04:58:01.167Z,37.50
2023-01-29T05:00:34.235Z,45.35
2023-01-29T05:03:02.821Z,39.70
2023-01-29T05:05:31.466Z,39.10
2023-01-29T05:08:00.368Z,32.45
2023-01-29T05:10:29.646Z,30.45
2023-01-29T05:13:04.580Z,31.92
2023-01-29T05:15:39.839Z,30.92
2023-01-29T05:18:08.746Z,33.92
2023-01-29T05:20:40.366Z,27.38
2023-01-29T05:23:18.339Z,34.65
2023-01-29T05:25:47.596Z,32.03
2023-01-29T05:28:15.949Z,30.50
2023-01-29T05:30:46.427Z,29.63
2023-01-29T05:33:23.118Z,28.15
2023-01-29T05:35:51.305Z,22.48
2023-01-29T05:38:20.405Z,23.67
2023-01-29T05:40:48.831Z,27.40
2023-01-29T05:43:20.232Z,25.20
2023-01-29T05:46:01.733Z,34.63
2023-01-29T05:48:30.678Z,25.93
2023-01-29T05:51:02.786Z,27.35
2023-01-29T05:56:03.246Z,25.20
2023-01-29T05:58:35.157Z,26.98
2023-01-29T06:01:15.118Z,31.63
2023-01-29T06:03:43.704Z,25.63
2023-01-29T06:06:13.264Z,28.73
2023-01-29T06:08:41.855Z,25.92
2023-01-29T06:11:12.398Z,31.45
2023-01-29T06:13:41.142Z,22.70
2023-01-29T06:16:10.658Z,27.88
2023-01-29T06:18:39.715Z,24.83
2023-01-29T06:21:10.873Z,27.05
2023-01-29T06:23:39.577Z,27.38
2023-01-29T06:26:14.404Z,40.97
2023-01-29T06:28:43.291Z,32.92
2023-01-29T06:31:27.444Z,26.20
2023-01-29T06:34:01.350Z,27.10
2023-01-29T06:36:29.425Z,32.67
2023-01-29T06:38:57.656Z,44.58
2023-01-29T06:41:26.121Z,42.10
2023-01-29T06:43:54.320Z,43.45
2023-01-29T06:46:22.653Z,44.58
2023-01-29T06:48:50.928Z,41.33
2023-01-29T06:51:19.212Z,36.00
2023-01-29T06:53:47.616Z,40.97
2023-01-29T06:56:15.705Z,36.63
2023-01-29T06:58:44.056Z,31.73
2023-01-29T07:01:25.541Z,37.63
2023-01-29T07:04:01.265Z,35.45
2023-01-29T07:06:30.521Z,41.70
2023-01-29T07:08:58.836Z,32.83
2023-01-29T07:11:27.254Z,39.35
2023-01-29T07:13:55.449Z,33.45
2023-01-29T07:16:23.935Z,33.70
2023-01-29T07:18:52.354Z,40.50
2023-01-29T07:21:20.522Z,47.05
2023-01-29T07:23:48.825Z,29.73
2023-01-29T07:26:17.371Z,33.13
2023-01-29T07:28:45.502Z,30.88
2023-01-29T07:31:15.284Z,35.85
2023-01-29T07:33:46.819Z,48.25
2023-01-29T07:36:15.529Z,44.03
2023-01-29T07:38:43.800Z,47.17
2023-01-29T07:41:12.732Z,42.25
2023-01-29T07:43:41.044Z,36.10
2023-01-29T07:46:09.323Z,32.40
2023-01-29T07:48:37.929Z,31.25
2023-01-29T07:51:06.331Z,34.25
2023-01-29T07:53:34.754Z,30.38
2023-01-29T07:56:03.828Z,31.35
2023-01-29T07:58:32.051Z,27.20
2023-01-29T08:01:00.485Z,33.63
2023-01-29T08:03:28.779Z,32.45
2023-01-29T08:05:58.882Z,31.58
2023-01-29T08:08:27.219Z,28.55
2023-01-29T08:10:55.401Z,33.35
2023-01-29T08:13:23.805Z,33.22
2023-01-29T08:15:52.086Z,30.77
2023-01-29T08:18:20.369Z,32.63
2023-01-29T08:20:48.521Z,31.27
2023-01-29T08:23:17.220Z,24.33
2023-01-29T08:25:45.513Z,25.75
2023-01-29T08:28:13.712Z,25.70
2023-01-29T08:30:42.362Z,33.13
2023-01-29T08:33:11.000Z,29.73
2023-01-29T08:35:39.209Z,27.05
2023-01-29T08:38:07.484Z,26.73
2023-01-29T08:40:36.391Z,24.35
2023-01-29T08:43:09.180Z,28.90
2023-01-29T08:45:41.222Z,21.83
2023-01-29T08:48:10.315Z,24.90
2023-01-29T08:50:38.968Z,35.10
2023-01-29T08:53:08.959Z,32.28
2023-01-29T08:55:41.071Z,34.83
2023-01-29T09:00:39.445Z,31.38
2023-01-29T09:03:07.668Z,34.35
2023-01-29T09:05:38.497Z,41.90
2023-01-29T09:08:18.016Z,34.05
2023-01-29T09:10:46.477Z,44.63
2023-01-29T09:13:14.995Z,36.60
2023-01-29T09:15:43.305Z,47.75
2023-01-29T09:18:11.588Z,31.83
2023-01-29T09:20:39.961Z,43.92
2023-01-29T09:23:10.861Z,45.33
2023-01-29T09:25:39.235Z,32.55
2023-01-29T09:28:07.671Z,39.10
2023-01-29T09:30:36.697Z,37.08
2023-01-29T09:33:06.304Z,42.80
2023-01-29T09:35:35.219Z,34.10
2023-01-29T09:38:03.905Z,40.35
2023-01-29T09:40:50.640Z,30.77
2023-01-29T09:43:37.376Z,33.03
2023-01-29T09:46:16.243Z,29.33
2023-01-29T09:48:47.153Z,25.63
2023-01-29T09:51:33.075Z,31.58
2023-01-29T09:54:46.268Z,32.95
2023-01-29T09:57:23.326Z,33.67
2023-01-29T09:59:51.732Z,29.98
2023-01-29T10:02:56.489Z,51.67
2023-01-29T10:05:49.075Z,30.10
2023-01-29T10:08:54.301Z,38.88
2023-01-29T10:11:31.863Z,38.22
2023-01-29T10:14:24.863Z,32.33
2023-01-29T10:17:28.715Z,32.42
2023-01-29T10:20:21.964Z,29.55
2023-01-29T10:23:02.013Z,38.10
2023-01-29T10:25:32.168Z,27.52
2023-01-29T10:28:47.070Z,34.35
2023-01-29T10:31:30.225Z,36.67
2023-01-29T10:34:40.695Z,28.27
2023-01-29T10:37:31.817Z,29.15
2023-01-29T10:40:01.452Z,34.33
2023-01-29T10:42:29.802Z,26.08
2023-01-29T10:45:17.149Z,33.58
2023-01-29T10:47:52.004Z,33.28
2023-01-29T10:50:32.317Z,33.33
2023-01-29T10:53:12.578Z,30.58
2023-01-29T10:56:23.107Z,27.92
2023-01-29T10:58:54.697Z,33.22
2023-01-29T11:01:43.411Z,41.20
2023-01-29T11:04:13.343Z,34.45
2023-01-29T11:06:41.640Z,24.77
2023-01-29T11:09:40.619Z,29.80
2023-01-29T11:12:32.256Z,32.63
2023-01-29T11:15:12.557Z,32.80
2023-01-29T11:18:00.728Z,36.75
2023-01-29T11:20:30.826Z,30.85
2023-01-29T11:22:59.309Z,33.30
2023-01-29T11:25:27.559Z,25.05
2023-01-29T11:27:58.383Z,36.97
2023-01-29T11:30:44.097Z,34.38
2023-01-29T11:33:23.902Z,32.33
2023-01-29T11:35:52.240Z,31.15
2023-01-29T11:38:29.522Z,26.95
2023-01-29T11:41:18.886Z,26.60
2023-01-29T11:43:47.397Z,29.58
2023-01-29T11:46:16.607Z,26.40
2023-01-29T11:48:53.621Z,25.48
2023-01-29T11:51:26.429Z,30.27
2023-01-29T11:54:03.866Z,33.25
2023-01-29T11:56:47.415Z,19.15
2023-01-29T11:59:50.059Z,31.98
2023-01-29T12:02:30.377Z,25.33
2023-01-29T12:05:06.370Z,29.95
2023-01-29T12:07:35.472Z,28.92
2023-01-29T12:10:03.911Z,35.67
2023-01-29T12:12:38.107Z,30.02
2023-01-29T12:15:17.487Z,32.60
2023-01-29T12:17:58.921Z,29.50
2023-01-29T12:20:42.200Z,18.57
2023-01-29T12:23:22.215Z,30.27
2023-01-29T12:26:02.473Z,37.63
2023-01-29T12:28:51.362Z,22.77
2023-01-29T12:31:36.458Z,19.15
2023-01-29T12:34:28.112Z,23.17
2023-01-29T12:37:19.795Z,18.70
2023-01-29T12:39:49.537Z,21.27
2023-01-29T12:42:24.914Z,20.23
2023-01-29T12:45:00.469Z,33.00
2023-01-29T12:47:39.228Z,26.17
2023-01-29T12:50:30.434Z,21.40
2023-01-29T12:53:26.200Z,37.15
2023-01-29T12:56:03.797Z,31.08
2023-01-29T12:58:40.252Z,20.35
2023-01-29T13:01:38.401Z,22.73
2023-01-29T13:04:15.556Z,35.28
2023-01-29T13:06:50.411Z,33.10
2023-01-29T13:09:23.981Z,32.00
2023-01-29T13:12:06.085Z,35.63
2023-01-29T13:15:04.105Z,34.22
2023-01-29T13:17:43.926Z,22.13
2023-01-29T13:20:25.606Z,28.70
2023-01-29T13:22:57.580Z,22.65
2023-01-29T13:27:54.355Z,28.30
2023-01-29T13:30:29.828Z,30.30
2023-01-29T13:33:01.190Z,20.88
2023-01-29T13:35:30.030Z,46.33
2023-01-29T13:37:58.322Z,30.13
2023-01-29T13:40:32.664Z,34.58
2023-01-29T13:43:03.373Z,36.67
2023-01-29T13:45:43.917Z,22.73
2023-01-29T13:48:32.293Z,24.50
2023-01-29T13:51:10.382Z,40.70
2023-01-29T13:53:42.517Z,32.70
2023-01-29T13:56:29.376Z,22.15
2023-01-29T13:58:58.127Z,36.80
2023-01-29T14:01:47.594Z,23.77
2023-01-29T14:04:26.647Z,27.20
2023-01-29T14:06:56.904Z,30.35
2023-01-29T14:09:37.488Z,35.20
2023-01-29T14:12:22.253Z,31.17
2023-01-29T14:14:56.445Z,36.10
2023-01-29T14:17:27.280Z,21.92
2023-01-29T14:20:19.195Z,27.23
2023-01-29T14:22:57.508Z,27.50
2023-01-29T14:25:35.308Z,19.70
2023-01-29T14:28:05.526Z,34.80
2023-01-29T14:30:36.062Z,33.47
2023-01-29T14:33:04.595Z,23.45
2023-01-29T14:35:34.713Z,28.45
2023-01-29T14:38:06.742Z,25.17
2023-01-29T14:40:35.278Z,26.42
2023-01-29T14:43:19.315Z,29.88
2023-01-29T14:45:51.139Z,28.23
2023-01-29T14:51:11.223Z,22.35
2023-01-29T14:53:49.380Z,24.48
2023-01-29T14:56:37.895Z,23.38
2023-01-29T14:59:17.123Z,23.35
2023-01-29T15:01:56.654Z,27.67
2023-01-29T15:04:45.163Z,26.05
2023-01-29T15:07:20.585Z,24.17
2023-01-29T15:10:01.311Z,24.90
2023-01-29T15:12:41.496Z,21.58
2023-01-29T15:15:26.133Z,23.52
2023-01-29T15:18:19.924Z,35.72
2023-01-29T15:20:48.407Z,28.17
2023-01-29T15:23:33.252Z,24.35
2023-01-29T15:26:07.577Z,25.70
2023-01-29T15:28:36.722Z,31.08
2023-01-29T15:31:08.093Z,20.83
2023-01-29T15:33:37.810Z,36.45
2023-01-29T15:36:08.014Z,33.72
2023-01-29T15:38:37.004Z,44.25
2023-01-29T15:41:17.330Z,32.72
2023-01-29T15:43:47.804Z,30.20
2023-01-29T15:46:27.800Z,40.33
2023-01-29T15:48:58.416Z,34.35
2023-01-29T15:51:28.496Z,27.95
2023-01-29T15:54:06.821Z,32.42
2023-01-29T15:56:41.877Z,25.58
2023-01-29T15:59:20.631Z,25.20
2023-01-29T16:01:48.994Z,30.35
2023-01-29T16:04:28.925Z,25.80
2023-01-29T16:06:58.649Z,21.30
2023-01-29T16:09:28.675Z,28.80
2023-01-29T16:11:59.802Z,28.75
2023-01-29T16:14:29.268Z,32.93
2023-01-29T16:16:57.671Z,22.73
2023-01-29T16:19:28.885Z,29.45
2023-01-29T16:22:02.440Z,27.98
2023-01-29T16:24:33.349Z,24.60
2023-01-29T16:27:08.781Z,23.65
2023-01-29T16:29:39.806Z,22.55
2023-01-29T16:32:10.708Z,28.63
2023-01-29T16:34:42.716Z,27.48
2023-01-29T16:37:27.629Z,34.95
2023-01-29T16:39:56.528Z,30.10
2023-01-29T16:42:27.558Z,26.33
2023-01-29T16:45:00.398Z,29.90
2023-01-29T16:47:38.883Z,27.30
2023-01-29T16:50:36.013Z,27.13
2023-01-29T16:53:13.547Z,27.13
2023-01-29T16:55:45.067Z,26.70
2023-01-29T16:58:23.201Z,29.00
2023-01-29T17:00:59.097Z,23.73
2023-01-29T17:03:28.613Z,23.13
2023-01-29T17:05:56.908Z,23.80
2023-01-29T17:08:33.217Z,28.45
2023-01-29T17:11:02.261Z,25.58
2023-01-29T17:13:43.252Z,45.25
2023-01-29T17:16:28.147Z,28.35
2023-01-29T17:18:56.734Z,25.73
2023-01-29T17:21:25.430Z,23.00
2023-01-29T17:23:54.611Z,26.50
2023-01-29T17:26:24.583Z,30.65
2023-01-29T17:28:54.330Z,23.70
2023-01-29T17:31:22.852Z,34.10
2023-01-29T17:33:51.370Z,32.55
2023-01-29T17:36:20.026Z,35.05
2023-01-29T17:38:48.342Z,25.85
2023-01-29T17:41:27.504Z,26.73
2023-01-29T17:43:55.927Z,32.35
2023-01-29T17:46:24.155Z,30.15
2023-01-29T17:48:52.405Z,32.22
2023-01-29T17:51:21.206Z,36.78
2023-01-29T17:53:50.651Z,23.95
2023-01-29T17:56:26.218Z,19.35
2023-01-29T17:58:54.623Z,23.55
2023-01-29T18:01:22.993Z,23.35
2023-01-29T18:03:51.246Z,26.38
2023-01-29T18:06:30.380Z,25.80
2023-01-29T18:08:58.678Z,35.13
2023-01-29T18:11:27.519Z,39.42
2023-01-29T18:13:57.852Z,16.10
2023-01-29T18:16:26.242Z,22.63
2023-01-29T18:18:54.824Z,32.35
2023-01-29T18:21:23.146Z,47.22
2023-01-29T18:23:51.421Z,25.23
2023-01-29T18:26:19.866Z,32.97
2023-01-29T18:28:47.957Z,29.75
2023-01-29T18:31:16.383Z,29.98
2023-01-29T18:33:44.661Z,31.98
2023-01-29T18:36:13.019Z,28.38
2023-01-29T18:38:41.366Z,25.90
2023-01-29T18:41:11.226Z,32.67
2023-01-29T18:43:40.797Z,34.58
2023-01-29T18:46:11.488Z,41.28
2023-01-29T18:48:42.798Z,46.83
2023-01-29T18:51:11.277Z,42.55
2023-01-29T18:53:39.543Z,55.20
2023-01-29T18:56:08.428Z,68.20
2023-01-29T18:58:37.465Z,45.08
2023-01-29T19:01:08.126Z,49.53
2023-01-29T19:03:36.821Z,53.05
2023-01-29T19:06:06.867Z,70.70
2023-01-29T19:08:37.178Z,59.45
2023-01-29T19:11:05.637Z,80.22
2023-01-29T19:13:34.532Z,71.80
2023-01-29T19:16:06.658Z,166.95
2023-01-29T19:18:35.003Z,244.77
2023-01-29T19:21:11.364Z,215.65
2023-01-29T19:23:40.532Z,216.93
2023-01-29T19:26:09.538Z,209.18
2023-01-29T19:28:37.994Z,200.15
2023-01-29T19:31:06.511Z,82.70
2023-01-29T19:33:34.847Z,69.65
2023-01-29T19:36:04.562Z,54.85
2023-01-29T19:38:32.917Z,56.90
2023-01-29T19:41:01.492Z,94.78
2023-01-29T19:43:30.799Z,134.60
2023-01-29T19:46:00.702Z,81.70
2023-01-29T19:48:29.363Z,78.35
2023-01-29T19:51:02.557Z,58.80
2023-01-29T19:53:31.857Z,234.65
2023-01-29T19:56:00.182Z,150.48
2023-01-29T19:58:29.204Z,110.05
2023-01-29T20:00:59.393Z,81.45
2023-01-29T20:03:28.737Z,90.30
2023-01-29T20:06:27.139Z,90.18
2023-01-29T20:08:55.552Z,132.35
2023-01-29T20:11:25.014Z,87.00
2023-01-29T20:13:53.588Z,100.22
2023-01-29T20:16:24.953Z,138.88
2023-01-29T20:18:53.331Z,95.82
2023-01-29T20:21:22.031Z,150.98
2023-01-29T20:23:52.168Z,70.30
2023-01-29T20:26:21.929Z,119.32
2023-01-29T20:28:50.791Z,174.77
2023-01-29T20:31:19.105Z,259.42
2023-01-29T20:33:47.382Z,270.10
2023-01-29T20:36:15.755Z,69.97
2023-01-29T20:38:44.050Z,153.65
2023-01-29T20:41:16.959Z,117.50
2023-01-29T20:43:46.504Z,57.45
2023-01-29T20:46:15.542Z,43.85
2023-01-29T20:48:43.965Z,79.28
2023-01-29T20:51:17.250Z,87.45
2023-01-29T20:53:47.303Z,77.00
2023-01-29T20:56:17.736Z,96.78
2023-01-29T20:58:46.671Z,81.75
2023-01-29T21:01:18.099Z,47.85
2023-01-29T21:03:47.029Z,59.92
2023-01-29T21:06:15.469Z,56.17
2023-01-29T21:08:43.971Z,89.45
2023-01-29T21:11:13.695Z,78.63
2023-01-29T21:13:42.108Z,46.35
2023-01-29T21:16:11.030Z,41.30
2023-01-29T21:18:39.404Z,45.28
2023-01-29T21:21:07.825Z,140.57
2023-01-29T21:23:36.150Z,86.25
2023-01-29T21:26:06.237Z,61.45
2023-01-29T21:28:35.079Z,61.38
2023-01-29T21:31:09.679Z,56.42
2023-01-29T21:33:38.636Z,89.90
2023-01-29T21:36:07.502Z,109.57
2023-01-29T21:38:35.905Z,45.90
2023-01-29T21:41:07.237Z,87.15
2023-01-29T21:43:36.201Z,50.63
2023-01-29T21:46:06.638Z,38.60
2023-01-29T21:48:34.932Z,41.78
2023-01-29T21:51:03.150Z,30.75
2023-01-29T21:53:31.479Z,47.88
2023-01-29T21:56:01.645Z,48.08
2023-01-29T21:58:30.336Z,58.63
2023-01-29T22:01:12.776Z,45.42
2023-01-29T22:03:47.700Z,63.40
2023-01-29T22:06:16.584Z,58.58
2023-01-29T22:08:45.049Z,65.80
2023-01-29T22:11:13.674Z,61.80
2023-01-29T22:13:42.379Z,60.00
2023-01-29T22:16:10.846Z,60.50
2023-01-29T22:18:39.178Z,51.88
2023-01-29T22:21:09.046Z,53.33
2023-01-29T22:23:37.381Z,42.33
2023-01-29T22:26:08.382Z,45.72
2023-01-29T22:28:37.353Z,31.70
2023-01-29T22:31:06.524Z,33.65
2023-01-29T22:33:35.122Z,37.08
2023-01-29T22:36:03.720Z,39.03
2023-01-29T22:38:32.113Z,47.80
2023-01-29T22:41:01.605Z,62.58
2023-01-29T22:43:29.863Z,63.05
2023-01-29T22:45:58.071Z,61.80
2023-01-29T22:48:26.676Z,47.03
2023-01-29T22:51:00.024Z,61.42
2023-01-29T22:53:28.337Z,54.95
2023-01-29T22:55:56.578Z,67.43
2023-01-29T22:58:24.902Z,39.17
2023-01-29T23:00:53.154Z,42.45
2023-01-29T23:03:21.428Z,63.75
2023-01-29T23:05:49.662Z,51.58
2023-01-29T23:08:18.154Z,58.10
2023-01-29T23:10:46.709Z,56.55
2023-01-29T23:13:15.086Z,53.78
2023-01-29T23:15:43.305Z,43.55
2023-01-29T23:18:11.563Z,43.95
2023-01-29T23:20:39.902Z,53.75
2023-01-29T23:23:08.175Z,56.80
2023-01-29T23:25:36.442Z,51.85
2023-01-29T23:28:04.667Z,66.82
2023-01-29T23:30:32.773Z,54.58
2023-01-29T23:33:01.132Z,57.65
2023-01-29T23:35:29.400Z,43.53
2023-01-29T23:37:57.771Z,34.42
2023-01-29T23:40:26.022Z,40.45
2023-01-29T23:42:54.237Z,38.40
2023-01-29T23:45:22.604Z,37.20
2023-01-29T23:47:50.878Z,50.65
2023-01-29T23:50:19.327Z,52.17
2023-01-29T23:52:47.957Z,54.97
2023-01-29T23:55:16.374Z,58.92
2023-01-29T23:57:44.569Z,64.75
